createdAt,value
2018-08-13T00:00:59.880Z,21.70
2018-08-13T00:03:28.315Z,21.70
2018-08-13T00:05:56.794Z,21.60
2018-08-13T00:08:25.225Z,21.60
2018-08-13T00:10:53.750Z,21.60
2018-08-13T00:13:22.185Z,21.60
2018-08-13T00:15:50.975Z,21.60
2018-08-13T00:18:19.611Z,21.60
2018-08-13T00:20:48.042Z,21.50
2018-08-13T00:23:16.463Z,21.50
2018-08-13T00:25:45.163Z,21.50
2018-08-13T00:28:13.609Z,21.50
2018-08-13T00:30:42.078Z,21.50
2018-08-13T00:33:11.921Z,21.50
2018-08-13T00:35:40.706Z,21.40
2018-08-13T00:38:09.270Z,21.40
2018-08-13T00:40:37.834Z,21.40
2018-08-13T00:43:06.704Z,21.40
2018-08-13T00:45:35.136Z,21.40
2018-08-13T00:48:03.545Z,21.30
2018-08-13T00:50:32.101Z,21.30
2018-08-13T00:53:00.891Z,21.30
2018-08-13T00:55:29.627Z,21.40
2018-08-13T00:57:58.189Z,21.30
2018-08-13T01:00:26.660Z,21.30
2018-08-13T01:02:55.155Z,21.30
2018-08-13T01:05:23.622Z,21.40
2018-08-13T01:07:52.045Z,21.30
2018-08-13T01:10:21.508Z,21.40
2018-08-13T01:12:50.102Z,21.30
2018-08-13T01:15:19.671Z,21.40
2018-08-13T01:17:49.647Z,21.30
2018-08-13T01:20:19.323Z,21.20
2018-08-13T01:22:47.804Z,21.20
2018-08-13T01:25:17.691Z,21.20
2018-08-13T01:27:46.215Z,21.20
2018-08-13T01:30:16.087Z,21.20
2018-08-13T01:32:44.562Z,21.20
2018-08-13T01:35:13.019Z,21.20
2018-08-13T01:37:41.620Z,21.20
2018-08-13T01:40:11.531Z,21.20
2018-08-13T01:42:40.002Z,21.20
2018-08-13T01:45:10.006Z,21.20
2018-08-13T01:47:38.714Z,21.20
2018-08-13T01:50:08.945Z,21.10
2018-08-13T01:52:37.345Z,21.10
2018-08-13T01:55:07.130Z,21.10
2018-08-13T01:57:35.565Z,21.00
2018-08-13T02:00:05.438Z,21.00
2018-08-13T02:02:33.939Z,20.90
2018-08-13T02:05:02.419Z,20.90
2018-08-13T02:07:30.823Z,20.90
2018-08-13T02:09:59.270Z,20.90
2018-08-13T02:12:27.717Z,20.90
2018-08-13T02:14:56.154Z,20.90
2018-08-13T02:17:24.640Z,20.90
2018-08-13T02:19:53.054Z,20.90
2018-08-13T02:22:21.634Z,20.90
2018-08-13T02:24:50.061Z,20.90
2018-08-13T02:27:18.592Z,20.90
2018-08-13T02:29:47.080Z,20.90
2018-08-13T02:32:15.562Z,20.90
2018-08-13T02:34:44.131Z,20.90
2018-08-13T02:37:12.611Z,20.80
2018-08-13T02:39:41.031Z,20.80
2018-08-13T02:42:09.579Z,20.80
2018-08-13T02:44:38.019Z,20.80
2018-08-13T02:47:06.683Z,20.80
2018-08-13T02:49:35.154Z,20.80
2018-08-13T02:52:03.701Z,20.80
2018-08-13T02:54:32.160Z,20.80
2018-08-13T02:57:00.752Z,20.80
2018-08-13T02:59:29.252Z,20.80
2018-08-13T03:01:57.710Z,20.70
2018-08-13T03:04:26.305Z,20.70
2018-08-13T03:06:54.733Z,20.70
2018-08-13T03:09:23.248Z,20.60
2018-08-13T03:11:51.733Z,20.60
2018-08-13T03:14:20.184Z,20.60
2018-08-13T03:16:48.659Z,20.60
2018-08-13T03:19:17.098Z,20.60
2018-08-13T03:21:45.557Z,20.60
2018-08-13T03:24:14.042Z,20.60
2018-08-13T03:26:42.562Z,20.50
2018-08-13T03:29:10.993Z,20.50
2018-08-13T03:31:39.577Z,20.50
2018-08-13T03:34:08.000Z,20.50
2018-08-13T03:36:36.447Z,20.50
2018-08-13T03:39:08.573Z,20.50
2018-08-13T03:41:37.067Z,20.40
2018-08-13T03:44:05.668Z,20.30
2018-08-13T03:46:34.143Z,20.30
2018-08-13T03:49:02.739Z,20.30
2018-08-13T03:51:37.820Z,20.30
2018-08-13T03:54:06.258Z,20.20
2018-08-13T03:56:34.705Z,20.20
2018-08-13T03:59:03.125Z,20.20
2018-08-13T04:01:31.591Z,20.20
2018-08-13T04:04:00.012Z,20.20
2018-08-13T04:06:28.479Z,20.10
2018-08-13T04:08:57.295Z,20.00
2018-08-13T04:11:25.780Z,20.10
2018-08-13T04:13:54.284Z,20.10
2018-08-13T04:16:23.037Z,20.00
2018-08-13T04:18:51.506Z,20.10
2018-08-13T04:21:19.889Z,20.10
2018-08-13T04:23:48.329Z,20.10
2018-08-13T04:26:16.751Z,20.10
2018-08-13T04:28:45.297Z,20.10
2018-08-13T04:31:13.845Z,20.00
2018-08-13T04:33:42.323Z,20.10
2018-08-13T04:36:10.725Z,20.10
2018-08-13T04:38:39.226Z,20.10
2018-08-13T04:41:07.809Z,20.10
2018-08-13T04:43:36.348Z,20.10
2018-08-13T04:46:04.905Z,20.10
2018-08-13T04:48:33.487Z,20.10
2018-08-13T04:51:01.890Z,20.20
2018-08-13T04:53:30.334Z,20.20
2018-08-13T04:55:58.736Z,20.20
2018-08-13T04:58:27.321Z,20.30
2018-08-13T05:00:55.737Z,20.30
2018-08-13T05:03:24.173Z,20.30
2018-08-13T05:05:52.753Z,20.30
2018-08-13T05:08:21.369Z,20.30
2018-08-13T05:10:49.991Z,20.40
2018-08-13T05:13:18.478Z,20.40
2018-08-13T05:15:47.003Z,20.50
2018-08-13T05:18:15.678Z,20.60
2018-08-13T05:20:44.138Z,20.60
2018-08-13T05:23:12.574Z,20.80
2018-08-13T05:25:41.010Z,20.80
2018-08-13T05:28:09.603Z,20.80
2018-08-13T05:30:38.079Z,20.90
2018-08-13T05:33:06.676Z,20.90
2018-08-13T05:35:35.297Z,21.00
2018-08-13T05:38:03.952Z,21.00
2018-08-13T05:40:32.386Z,21.10
2018-08-13T05:43:00.843Z,21.20
2018-08-13T05:45:29.253Z,21.30
2018-08-13T05:47:58.147Z,21.30
2018-08-13T05:50:26.679Z,21.40
2018-08-13T05:52:55.296Z,21.50
2018-08-13T05:55:23.919Z,21.50
2018-08-13T05:57:52.350Z,21.60
2018-08-13T06:00:20.758Z,21.70
2018-08-13T06:02:49.218Z,21.80
2018-08-13T06:05:17.669Z,21.90
2018-08-13T06:07:46.274Z,22.00
2018-08-13T06:10:14.827Z,22.00
2018-08-13T06:12:43.389Z,22.10
2018-08-13T06:15:13.151Z,22.20
2018-08-13T06:17:41.820Z,22.30
2018-08-13T06:20:11.886Z,22.40
2018-08-13T06:22:41.495Z,22.50
2018-08-13T06:25:10.575Z,22.60
2018-08-13T06:27:39.015Z,22.70
2018-08-13T06:30:12.375Z,22.80
2018-08-13T06:32:41.721Z,22.90
2018-08-13T06:35:10.825Z,23.00
2018-08-13T06:37:39.523Z,23.10
2018-08-13T06:40:08.525Z,23.30
2018-08-13T06:42:37.102Z,23.40
2018-08-13T06:45:06.843Z,23.50
2018-08-13T06:47:35.627Z,23.60
2018-08-13T06:50:05.343Z,23.60
2018-08-13T06:52:34.339Z,23.80
2018-08-13T06:55:03.398Z,23.90
2018-08-13T06:57:32.047Z,24.00
2018-08-13T07:00:00.494Z,24.10
2018-08-13T07:02:29.234Z,24.20
2018-08-13T07:04:57.810Z,24.40
2018-08-13T07:07:26.849Z,24.50
2018-08-13T07:09:55.888Z,24.60
2018-08-13T07:12:25.347Z,24.70
2018-08-13T07:14:54.405Z,24.80
2018-08-13T07:17:22.836Z,25.00
2018-08-13T07:19:51.478Z,25.20
2018-08-13T07:22:19.924Z,25.30
2018-08-13T07:24:48.559Z,25.40
2018-08-13T07:27:17.543Z,25.60
2018-08-13T07:29:46.067Z,25.80
2018-08-13T07:32:14.939Z,25.90
2018-08-13T07:34:44.007Z,26.10
2018-08-13T07:37:13.186Z,26.20
2018-08-13T07:39:42.235Z,26.10
2018-08-13T07:42:11.234Z,26.10
2018-08-13T07:44:40.333Z,26.10
2018-08-13T07:47:09.375Z,26.20
2018-08-13T07:49:38.433Z,26.40
2018-08-13T07:52:07.583Z,26.40
2018-08-13T07:54:36.640Z,26.50
2018-08-13T07:57:05.680Z,26.70
2018-08-13T07:59:34.718Z,26.80
2018-08-13T08:02:03.716Z,26.90
2018-08-13T08:04:32.750Z,27.10
2018-08-13T08:07:01.944Z,27.20
2018-08-13T08:09:30.978Z,27.30
2018-08-13T08:11:59.990Z,27.40
2018-08-13T08:14:29.183Z,27.50
2018-08-13T08:16:58.262Z,27.60
2018-08-13T08:19:27.313Z,27.80
2018-08-13T08:21:56.916Z,27.90
2018-08-13T08:24:25.939Z,28.00
2018-08-13T08:26:55.243Z,28.20
2018-08-13T08:29:25.077Z,28.40
2018-08-13T08:31:54.328Z,28.60
2018-08-13T08:34:23.416Z,28.80
2018-08-13T08:36:52.398Z,28.80
2018-08-13T08:39:21.497Z,28.90
2018-08-13T08:41:50.551Z,28.70
2018-08-13T08:44:19.557Z,28.50
2018-08-13T08:46:48.559Z,28.30
2018-08-13T08:49:17.736Z,28.40
2018-08-13T08:51:46.826Z,28.40
2018-08-13T08:54:15.855Z,28.40
2018-08-13T08:56:44.999Z,28.20
2018-08-13T08:59:13.994Z,28.10
2018-08-13T09:01:43.107Z,28.00
2018-08-13T09:04:12.107Z,28.00
2018-08-13T09:06:41.156Z,28.10
2018-08-13T09:09:12.192Z,28.30
2018-08-13T09:11:41.906Z,28.50
2018-08-13T09:14:10.983Z,28.80
2018-08-13T09:16:43.199Z,29.00
2018-08-13T09:19:23.658Z,29.00
2018-08-13T09:21:57.752Z,29.00
2018-08-13T09:24:38.203Z,29.10
2018-08-13T09:27:18.933Z,29.30
2018-08-13T09:29:59.233Z,29.40
2018-08-13T09:32:39.508Z,29.60
2018-08-13T09:35:20.037Z,29.60
2018-08-13T09:37:49.058Z,29.40
2018-08-13T09:40:18.028Z,29.20
2018-08-13T09:42:47.095Z,29.10
2018-08-13T09:45:16.191Z,29.10
2018-08-13T09:47:45.203Z,29.00
2018-08-13T09:50:16.947Z,29.00
2018-08-13T09:52:46.694Z,28.90
2018-08-13T09:55:16.490Z,28.90
2018-08-13T09:57:46.482Z,28.80
2018-08-13T10:00:23.452Z,28.80
2018-08-13T10:02:52.779Z,28.80
2018-08-13T10:05:21.938Z,28.80
2018-08-13T10:07:50.976Z,28.90
2018-08-13T10:10:20.120Z,28.90
2018-08-13T10:12:49.178Z,28.90
2018-08-13T10:15:18.145Z,29.00
2018-08-13T10:17:47.198Z,29.10
2018-08-13T10:20:19.496Z,29.00
2018-08-13T10:22:48.566Z,28.80
2018-08-13T10:25:17.581Z,28.50
2018-08-13T10:27:46.680Z,28.50
2018-08-13T10:30:16.436Z,28.50
2018-08-13T10:32:45.779Z,28.60
2018-08-13T10:35:14.742Z,28.80
2018-08-13T10:37:43.867Z,29.00
2018-08-13T10:40:14.984Z,29.20
2018-08-13T10:42:44.090Z,29.20
2018-08-13T10:45:13.410Z,29.00
2018-08-13T10:47:42.539Z,28.80
2018-08-13T10:50:13.214Z,28.70
2018-08-13T10:52:42.578Z,28.60
2018-08-13T10:55:12.984Z,28.60
2018-08-13T10:57:42.241Z,28.50
2018-08-13T11:00:15.576Z,28.30
2018-08-13T11:02:44.731Z,28.30
2018-08-13T11:05:14.783Z,28.40
2018-08-13T11:07:43.900Z,28.40
2018-08-13T11:10:13.691Z,28.40
2018-08-13T11:12:42.814Z,28.50
2018-08-13T11:15:19.357Z,28.50
2018-08-13T11:17:48.485Z,28.50
2018-08-13T11:20:17.659Z,28.60
2018-08-13T11:22:46.730Z,28.60
2018-08-13T11:25:16.228Z,28.50
2018-08-13T11:27:45.814Z,28.50
2018-08-13T11:30:16.005Z,28.50
2018-08-13T11:32:45.078Z,28.60
2018-08-13T11:35:14.892Z,28.70
2018-08-13T11:37:43.905Z,28.80
2018-08-13T11:40:14.743Z,28.80
2018-08-13T11:42:43.779Z,28.80
2018-08-13T11:45:12.831Z,29.00
2018-08-13T11:47:42.089Z,29.00
2018-08-13T11:50:16.637Z,29.20
2018-08-13T11:52:47.090Z,29.80
2018-08-13T11:55:16.616Z,29.40
2018-08-13T11:57:46.388Z,29.40
2018-08-13T12:00:15.542Z,29.60
2018-08-13T12:02:44.554Z,29.70
2018-08-13T12:05:14.798Z,29.60
2018-08-13T12:07:44.610Z,29.70
2018-08-13T12:10:13.994Z,29.70
2018-08-13T12:12:43.457Z,29.90
2018-08-13T12:15:13.184Z,30.00
2018-08-13T12:17:42.570Z,30.10
2018-08-13T12:20:16.369Z,30.20
2018-08-13T12:22:45.803Z,30.40
2018-08-13T12:25:25.709Z,30.40
2018-08-13T12:27:54.970Z,30.60
2018-08-13T12:30:24.097Z,30.80
2018-08-13T12:32:54.009Z,31.10
2018-08-13T12:35:22.993Z,31.20
2018-08-13T12:37:52.243Z,31.20
2018-08-13T12:40:21.260Z,31.30
2018-08-13T12:42:50.287Z,31.50
2018-08-13T12:45:19.514Z,31.70
2018-08-13T12:47:48.655Z,31.80
2018-08-13T12:50:19.072Z,31.80
2018-08-13T12:52:49.155Z,32.00
2018-08-13T12:55:18.314Z,32.20
2018-08-13T12:57:47.568Z,32.30
2018-08-13T13:00:17.703Z,32.10
2018-08-13T13:02:46.877Z,31.80
2018-08-13T13:05:16.829Z,31.30
2018-08-13T13:07:45.858Z,30.90
2018-08-13T13:10:15.978Z,30.70
2018-08-13T13:12:45.262Z,30.50
2018-08-13T13:15:15.739Z,30.30
2018-08-13T13:17:44.780Z,30.20
2018-08-13T13:20:21.508Z,30.10
2018-08-13T13:22:51.058Z,29.90
2018-08-13T13:25:20.341Z,29.60
2018-08-13T13:27:49.375Z,29.50
2018-08-13T13:30:18.675Z,29.30
2018-08-13T13:32:47.676Z,29.10
2018-08-13T13:35:17.595Z,28.90
2018-08-13T13:37:46.601Z,28.70
2018-08-13T13:40:16.621Z,28.70
2018-08-13T13:42:45.838Z,28.60
2018-08-13T13:45:15.556Z,28.50
2018-08-13T13:47:44.535Z,28.40
2018-08-13T13:50:15.411Z,28.40
2018-08-13T13:52:44.923Z,28.30
2018-08-13T13:55:14.394Z,28.20
2018-08-13T13:57:43.347Z,28.00
2018-08-13T14:00:18.177Z,27.90
2018-08-13T14:02:48.512Z,27.70
2018-08-13T14:05:17.636Z,27.60
2018-08-13T14:07:47.074Z,27.20
2018-08-13T14:10:17.817Z,26.90
2018-08-13T14:12:47.033Z,26.60
2018-08-13T14:15:17.405Z,26.30
2018-08-13T14:17:46.506Z,26.20
2018-08-13T14:20:15.756Z,26.00
2018-08-13T14:22:44.721Z,25.80
2018-08-13T14:25:14.522Z,25.70
2018-08-13T14:27:43.671Z,25.70
2018-08-13T14:30:18.292Z,25.60
2018-08-13T14:32:47.794Z,25.30
2018-08-13T14:35:16.562Z,25.00
2018-08-13T14:37:44.982Z,24.50
2018-08-13T14:40:13.682Z,23.60
2018-08-13T14:42:42.952Z,22.80
2018-08-13T14:45:12.847Z,21.90
2018-08-13T14:47:42.775Z,21.40
2018-08-13T14:50:11.906Z,20.70
2018-08-13T14:52:41.899Z,20.30
2018-08-13T14:55:10.582Z,19.90
2018-08-13T14:57:39.002Z,19.70
2018-08-13T15:00:14.030Z,19.60
2018-08-13T15:02:42.474Z,19.60
2018-08-13T15:05:10.996Z,19.60
2018-08-13T15:07:39.442Z,19.60
2018-08-13T15:10:10.802Z,19.60
2018-08-13T15:12:39.304Z,19.60
2018-08-13T15:15:10.005Z,19.60
2018-08-13T15:17:38.645Z,19.70
2018-08-13T15:20:08.994Z,19.70
2018-08-13T15:22:37.402Z,19.60
2018-08-13T15:25:06.448Z,19.60
2018-08-13T15:27:35.381Z,19.50
2018-08-13T15:30:04.992Z,19.40
2018-08-13T15:32:33.392Z,19.30
2018-08-13T15:35:01.859Z,19.30
2018-08-13T15:37:30.273Z,19.40
2018-08-13T15:39:58.762Z,19.40
2018-08-13T15:42:27.330Z,19.30
2018-08-13T15:44:55.819Z,19.30
2018-08-13T15:47:24.253Z,19.30
2018-08-13T15:49:52.855Z,19.30
2018-08-13T15:52:21.284Z,19.30
2018-08-13T15:54:49.767Z,19.40
2018-08-13T15:57:18.451Z,19.50
2018-08-13T15:59:46.898Z,19.50
2018-08-13T16:02:15.325Z,19.60
2018-08-13T16:04:43.778Z,19.70
2018-08-13T16:07:12.703Z,19.80
2018-08-13T16:09:41.389Z,19.90
2018-08-13T16:12:10.151Z,20.00
2018-08-13T16:14:38.959Z,20.10
2018-08-13T16:17:07.727Z,20.10
2018-08-13T16:19:36.187Z,20.20
2018-08-13T16:22:05.119Z,20.10
2018-08-13T16:24:34.084Z,20.10
2018-08-13T16:27:02.532Z,20.10
2018-08-13T16:29:31.142Z,20.10
2018-08-13T16:32:00.027Z,20.20
2018-08-13T16:34:28.420Z,20.30
2018-08-13T16:36:56.850Z,20.30
2018-08-13T16:39:25.238Z,20.40
2018-08-13T16:41:53.912Z,20.40
2018-08-13T16:44:22.317Z,20.40
2018-08-13T16:46:50.811Z,20.40
2018-08-13T16:49:19.403Z,20.40
2018-08-13T16:51:47.921Z,20.40
2018-08-13T16:54:16.375Z,20.50
2018-08-13T16:56:44.836Z,20.40
2018-08-13T16:59:13.460Z,20.40
2018-08-13T17:01:41.889Z,20.50
2018-08-13T17:04:10.336Z,20.60
2018-08-13T17:06:38.777Z,20.90
2018-08-13T17:09:08.602Z,21.00
2018-08-13T17:11:37.228Z,20.70
2018-08-13T17:14:08.736Z,20.60
2018-08-13T17:16:38.562Z,20.60
2018-08-13T17:19:06.994Z,20.60
2018-08-13T17:21:35.470Z,20.70
2018-08-13T17:24:04.151Z,20.80
2018-08-13T17:26:32.599Z,20.90
2018-08-13T17:29:01.036Z,21.10
2018-08-13T17:31:29.493Z,21.30
2018-08-13T17:33:57.986Z,21.50
2018-08-13T17:36:26.537Z,21.50
2018-08-13T17:38:55.007Z,21.60
2018-08-13T17:41:23.490Z,21.70
2018-08-13T17:43:52.208Z,21.60
2018-08-13T17:46:21.023Z,21.40
2018-08-13T17:48:49.503Z,21.50
2018-08-13T17:51:17.891Z,21.60
2018-08-13T17:53:46.416Z,21.50
2018-08-13T17:56:14.808Z,21.60
2018-08-13T17:58:43.248Z,21.50
2018-08-13T18:01:11.770Z,21.50
2018-08-13T18:03:40.410Z,21.60
2018-08-13T18:06:08.876Z,21.70
2018-08-13T18:08:37.348Z,21.70
2018-08-13T18:11:06.042Z,21.70
2018-08-13T18:13:34.501Z,21.60
2018-08-13T18:16:03.078Z,21.70
2018-08-13T18:18:31.668Z,21.60
2018-08-13T18:21:00.086Z,21.60
2018-08-13T18:23:28.512Z,21.70
2018-08-13T18:25:57.014Z,21.60
2018-08-13T18:28:25.588Z,21.60
2018-08-13T18:30:53.977Z,21.60
2018-08-13T18:33:22.429Z,21.50
2018-08-13T18:35:50.905Z,21.40
2018-08-13T18:38:19.363Z,21.40
2018-08-13T18:40:47.786Z,21.40
2018-08-13T18:43:16.219Z,21.40
2018-08-13T18:45:44.651Z,21.40
2018-08-13T18:48:13.183Z,21.40
2018-08-13T18:50:41.604Z,21.40
2018-08-13T18:53:10.280Z,21.40
2018-08-13T18:55:38.681Z,21.50
2018-08-13T18:58:07.134Z,21.40
2018-08-13T19:00:35.577Z,21.40
2018-08-13T19:03:04.017Z,21.30
2018-08-13T19:05:33.856Z,21.30
2018-08-13T19:08:02.286Z,21.40
2018-08-13T19:10:31.041Z,21.40
2018-08-13T19:12:59.479Z,21.40
2018-08-13T19:15:28.535Z,21.50
2018-08-13T19:17:57.035Z,21.40
2018-08-13T19:20:25.491Z,21.30
2018-08-13T19:22:53.927Z,21.30
2018-08-13T19:25:24.240Z,21.20
2018-08-13T19:27:52.672Z,21.20
2018-08-13T19:30:22.019Z,21.20
2018-08-13T19:32:50.949Z,21.10
2018-08-13T19:35:19.452Z,20.90
2018-08-13T19:37:48.326Z,20.80
2018-08-13T19:40:18.474Z,20.80
2018-08-13T19:42:47.720Z,20.80
2018-08-13T19:45:17.118Z,20.80
2018-08-13T19:47:46.016Z,20.80
2018-08-13T19:50:15.040Z,20.80
2018-08-13T19:52:44.817Z,20.80
2018-08-13T19:55:13.630Z,20.70
2018-08-13T19:57:42.036Z,20.70
2018-08-13T20:00:15.675Z,20.60
2018-08-13T20:02:44.306Z,20.60
2018-08-13T20:05:12.771Z,20.60
2018-08-13T20:07:41.217Z,20.70
2018-08-13T20:10:11.522Z,20.60
2018-08-13T20:12:40.148Z,20.70
2018-08-13T20:15:09.212Z,20.60
2018-08-13T20:17:37.903Z,20.70
2018-08-13T20:20:17.993Z,20.70
2018-08-13T20:22:47.141Z,20.80
2018-08-13T20:25:16.731Z,20.70
2018-08-13T20:27:46.028Z,20.60
2018-08-13T20:30:16.736Z,20.50
2018-08-13T20:32:46.693Z,20.40
2018-08-13T20:35:15.219Z,20.40
2018-08-13T20:37:43.719Z,20.40
2018-08-13T20:40:14.040Z,20.30
2018-08-13T20:42:42.892Z,20.30
2018-08-13T20:45:13.657Z,20.30
2018-08-13T20:47:43.547Z,20.20
2018-08-13T20:50:14.826Z,20.10
2018-08-13T20:52:43.860Z,20.10
2018-08-13T20:55:17.998Z,20.10
2018-08-13T20:57:47.192Z,20.00
2018-08-13T21:00:16.898Z,20.00
2018-08-13T21:02:46.608Z,20.00
2018-08-13T21:05:15.704Z,20.00
2018-08-13T21:07:44.781Z,19.90
2018-08-13T21:10:15.234Z,19.90
2018-08-13T21:12:43.717Z,19.90
2018-08-13T21:15:14.547Z,19.90
2018-08-13T21:17:43.145Z,19.90
2018-08-13T21:20:23.105Z,19.90
2018-08-13T21:22:51.563Z,19.90
2018-08-13T21:25:20.036Z,19.80
2018-08-13T21:27:48.536Z,19.80
2018-08-13T21:30:17.120Z,19.90
2018-08-13T21:32:45.992Z,19.80
2018-08-13T21:35:19.027Z,19.80
2018-08-13T21:37:47.839Z,19.90
2018-08-13T21:40:17.076Z,19.90
2018-08-13T21:42:46.053Z,19.80
2018-08-13T21:45:14.770Z,19.70
2018-08-13T21:47:43.300Z,19.70
2018-08-13T21:50:14.901Z,19.70
2018-08-13T21:52:43.603Z,19.60
2018-08-13T21:55:12.239Z,19.60
2018-08-13T21:57:40.773Z,19.70
2018-08-13T22:00:49.770Z,19.60
2018-08-13T22:03:18.225Z,19.70
2018-08-13T22:05:46.660Z,19.70
2018-08-13T22:08:15.108Z,19.70
2018-08-13T22:10:43.632Z,19.60
2018-08-13T22:13:12.167Z,19.60
2018-08-13T22:15:40.727Z,19.60
2018-08-13T22:18:09.487Z,19.60
2018-08-13T22:20:38.381Z,19.60
2018-08-13T22:23:07.754Z,19.70
2018-08-13T22:25:40.151Z,19.70
2018-08-13T22:28:09.739Z,19.60
2018-08-13T22:30:38.391Z,19.60
2018-08-13T22:33:07.907Z,19.60
2018-08-13T22:35:36.359Z,19.60
2018-08-13T22:38:05.414Z,19.50
2018-08-13T22:40:33.870Z,19.50
2018-08-13T22:43:02.306Z,19.40
2018-08-13T22:45:31.091Z,19.30
2018-08-13T22:47:59.646Z,19.20
2018-08-13T22:50:28.130Z,19.10
2018-08-13T22:52:56.656Z,19.00
2018-08-13T22:55:25.096Z,19.00
2018-08-13T22:57:53.618Z,18.90
2018-08-13T23:00:22.287Z,18.90
2018-08-13T23:02:51.384Z,18.90
2018-08-13T23:05:21.233Z,18.90
2018-08-13T23:07:49.856Z,18.90
2018-08-13T23:10:19.889Z,18.90
2018-08-13T23:12:49.511Z,18.90
2018-08-13T23:15:18.328Z,18.90
2018-08-13T23:17:47.149Z,18.90
2018-08-13T23:20:20.393Z,18.80
2018-08-13T23:22:50.762Z,18.80
2018-08-13T23:25:19.632Z,18.80
2018-08-13T23:27:49.276Z,18.80
2018-08-13T23:30:18.036Z,18.80
2018-08-13T23:32:48.650Z,18.80
2018-08-13T23:35:17.888Z,18.70
2018-08-13T23:37:46.385Z,18.70
2018-08-13T23:40:14.817Z,18.60
2018-08-13T23:42:43.471Z,18.60
2018-08-13T23:45:14.307Z,18.50
2018-08-13T23:47:42.823Z,18.50
2018-08-13T23:50:13.483Z,18.50
2018-08-13T23:52:42.003Z,18.50
2018-08-13T23:55:15.291Z,18.50
2018-08-13T23:57:43.919Z,18.50
